Time;durP1;ratioP1;P1;durP2;ratioP2;P2;SDS_P1;SDS_P2;PMS_P1;PMS_P2;Temp;Humidity;BMP_temperature;BMP_pressure;BME280_temperature;BME280_humidity;BME280_pressure;Samples;Min_cycle;Max_cycle;Signal;HPM_P1;HPM_P2
2022/05/15 00:02:36;;;;;;;9.90;4.30;;;23.90;48.80;;;;;;220353;1268;22810;-62
2022/05/15 00:07:43;;;;;;;10.60;4.60;;;23.90;48.80;;;;;;220090;1268;24085;-61
2022/05/15 00:12:54;;;;;;;10.40;4.30;;;23.90;49.00;;;;;;220354;1268;24293;-62
2022/05/15 00:18:25;;;;;;;9.40;4.10;;;23.90;49.10;;;;;;219695;1274;22822;-62
2022/05/15 00:23:32;;;;;;;9.80;4.30;;;23.90;49.10;;;;;;219544;1273;25649;-62
2022/05/15 00:28:36;;;;;;;8.50;4.40;;;23.90;49.10;;;;;;219720;1273;25657;-62
2022/05/15 00:33:43;;;;;;;8.30;4.00;;;23.90;49.20;;;;;;219843;1271;22562;-60
2022/05/15 00:38:47;;;;;;;7.90;3.70;;;23.90;49.40;;;;;;219667;1272;22796;-62
2022/05/15 00:43:55;;;;;;;10.00;4.10;;;23.90;49.40;;;;;;219741;1271;22550;-64
2022/05/15 00:49:11;;;;;;;9.00;4.10;;;23.90;49.60;;;;;;219884;1268;26547;-63
2022/05/15 00:54:56;;;;;;;8.70;3.90;;;23.90;49.70;;;;;;220440;1267;24609;-61
2022/05/15 01:00:31;;;;;;;5.70;4.00;;;23.90;49.70;;;;;;219995;1267;24437;-63
2022/05/15 01:05:54;;;;;;;6.70;3.70;;;23.80;49.70;;;;;;220543;1267;24212;-60
2022/05/15 01:11:17;;;;;;;7.20;3.80;;;23.80;49.80;;;;;;220309;1268;25185;-62
2022/05/15 01:16:44;;;;;;;7.30;4.10;;;23.80;49.90;;;;;;220082;1270;22701;-63
2022/05/15 01:21:56;;;;;;;6.30;4.10;;;23.80;50.00;;;;;;220209;1269;22559;-62
2022/05/15 01:27:07;;;;;;;6.90;3.70;;;23.80;50.10;;;;;;220205;1268;22685;-62
2022/05/15 01:32:13;;;;;;;6.00;3.70;;;23.80;50.10;;;;;;219774;1270;22564;-63
2022/05/15 01:37:18;;;;;;;5.20;3.40;;;23.80;50.00;;;;;;220029;1268;25524;-62
2022/05/15 01:42:23;;;;;;;6.10;3.80;;;23.80;50.00;;;;;;220003;1268;22542;-61
2022/05/15 01:47:29;;;;;;;7.50;3.60;;;23.80;50.50;;;;;;220301;1267;24370;-62
2022/05/15 01:52:35;;;;;;;7.10;3.90;;;23.80;50.30;;;;;;220467;1267;24287;-62
2022/05/15 01:57:43;;;;;;;6.10;3.60;;;23.80;50.40;;;;;;220417;1267;24097;-62
2022/05/15 02:02:48;;;;;;;9.80;4.10;;;23.80;50.60;;;;;;220287;1268;23583;-61
2022/05/15 02:07:53;;;;;;;7.40;4.20;;;23.80;50.80;;;;;;220208;1268;24416;-63
2022/05/15 02:13:00;;;;;;;5.40;3.30;;;23.90;51.30;;;;;;220141;1267;24304;-65
2022/05/15 02:18:05;;;;;;;6.00;4.20;;;23.90;51.50;;;;;;220058;1268;25296;-62
2022/05/15 02:23:10;;;;;;;5.60;3.80;;;23.90;51.70;;;;;;220219;1267;25304;-62
2022/05/15 02:28:15;;;;;;;6.70;3.90;;;23.90;52.20;;;;;;220476;1268;23053;-62
2022/05/15 02:33:19;;;;;;;8.90;3.90;;;23.90;52.20;;;;;;220209;1268;24239;-62
2022/05/15 02:38:24;;;;;;;6.70;4.30;;;23.90;52.40;;;;;;219999;1268;22686;-62
2022/05/15 02:43:28;;;;;;;6.60;4.10;;;23.90;52.20;;;;;;219792;1268;26279;-61
2022/05/15 02:54:12;;;;;;;5.50;3.90;;;23.90;52.80;;;;;;220023;1268;22547;-63
2022/05/15 02:59:16;;;;;;;6.40;3.90;;;23.90;52.80;;;;;;220348;1270;25600;-63
2022/05/15 03:04:20;;;;;;;4.70;3.70;;;24.00;53.00;;;;;;220199;1268;22630;-64
2022/05/15 03:09:25;;;;;;;5.90;4.60;;;24.00;53.60;;;;;;220137;1268;22550;-62
2022/05/15 03:14:29;;;;;;;7.10;4.30;;;24.00;53.10;;;;;;220390;1268;24325;-63
2022/05/15 03:19:33;;;;;;;7.40;4.10;;;24.00;52.90;;;;;;220068;1267;25455;-63
2022/05/15 03:24:37;;;;;;;7.20;4.20;;;24.00;52.80;;;;;;220415;1268;24299;-61
2022/05/15 03:29:42;;;;;;;6.90;4.00;;;24.00;52.70;;;;;;220609;1267;22641;-62
2022/05/15 03:34:49;;;;;;;6.80;4.30;;;24.00;52.60;;;;;;220143;1268;22750;-62
2022/05/15 03:39:57;;;;;;;6.10;4.00;;;23.90;52.60;;;;;;220364;1268;22534;-64
2022/05/15 03:45:02;;;;;;;6.80;3.40;;;23.90;52.50;;;;;;220338;1268;23969;-64
2022/05/15 03:50:07;;;;;;;9.50;3.50;;;23.90;53.20;;;;;;220484;1268;25234;-62
2022/05/15 03:55:13;;;;;;;5.20;3.40;;;23.80;52.40;;;;;;220337;1268;23051;-61
2022/05/15 04:00:17;;;;;;;6.60;3.90;;;23.80;52.50;;;;;;219778;1268;22547;-64
2022/05/15 04:05:22;;;;;;;4.90;3.30;;;23.80;51.80;;;;;;219977;1268;24218;-63
2022/05/15 04:10:26;;;;;;;5.90;3.90;;;23.80;52.10;;;;;;220555;1268;25553;-63
2022/05/15 04:15:33;;;;;;;5.70;3.70;;;23.80;52.50;;;;;;220125;1270;22788;-62
2022/05/15 04:20:37;;;;;;;4.30;3.10;;;23.80;52.70;;;;;;220089;1268;22542;-62
2022/05/15 04:25:45;;;;;;;5.90;3.00;;;23.80;52.30;;;;;;219892;1268;24299;-64
2022/05/15 04:30:50;;;;;;;7.20;3.60;;;23.80;52.40;;;;;;220228;1268;22699;-63
2022/05/15 04:36:02;;;;;;;6.10;3.40;;;23.80;52.40;;;;;;219807;1271;22580;-63
2022/05/15 04:41:10;;;;;;;5.50;3.20;;;23.80;52.40;;;;;;220013;1270;25416;-63
2022/05/15 04:46:14;;;;;;;6.30;3.30;;;23.80;52.50;;;;;;219839;1270;24924;-62
2022/05/15 04:51:19;;;;;;;4.10;2.90;;;23.80;51.80;;;;;;220063;1270;23593;-62
2022/05/15 04:56:23;;;;;;;5.00;3.20;;;23.80;51.90;;;;;;220452;1270;25616;-62
2022/05/15 05:01:30;;;;;;;3.80;2.60;;;23.80;51.90;;;;;;220329;1270;25223;-64
2022/05/15 05:06:37;;;;;;;4.40;3.00;;;23.80;52.10;;;;;;220219;1270;25347;-63
2022/05/15 05:11:51;;;;;;;4.80;2.70;;;23.80;52.50;;;;;;219981;1270;22567;-62
2022/05/15 05:16:54;;;;;;;5.20;3.40;;;23.80;52.30;;;;;;220125;1268;24218;-63
2022/05/15 05:22:03;;;;;;;5.10;3.20;;;23.80;52.30;;;;;;220438;1267;25255;-63
2022/05/15 05:27:09;;;;;;;6.30;3.00;;;23.80;51.80;;;;;;220321;1268;22544;-63
2022/05/15 05:32:20;;;;;;;5.00;3.50;;;23.80;52.10;;;;;;220010;1268;25356;-63
2022/05/15 05:37:25;;;;;;;5.00;3.10;;;23.80;52.50;;;;;;220295;1268;22554;-64
2022/05/15 05:42:29;;;;;;;4.60;3.00;;;23.80;52.00;;;;;;220300;1268;24388;-61
2022/05/15 05:47:38;;;;;;;4.50;2.90;;;23.80;52.00;;;;;;220557;1268;24342;-62
2022/05/15 05:52:57;;;;;;;4.40;2.90;;;23.80;51.80;;;;;;220197;1268;22547;-62
2022/05/15 05:58:02;;;;;;;5.30;3.20;;;23.80;52.30;;;;;;220251;1268;24293;-62
2022/05/15 06:08:35;;;;;;;5.90;3.00;;;23.80;51.80;;;;;;219966;1268;22698;-62
2022/05/15 06:13:42;;;;;;;5.00;3.00;;;23.80;51.60;;;;;;220230;1268;22881;-61
2022/05/15 06:18:46;;;;;;;5.00;3.40;;;23.80;51.80;;;;;;220114;1268;24289;-63
2022/05/15 06:23:52;;;;;;;6.00;2.90;;;23.80;51.80;;;;;;219892;1270;25215;-59
2022/05/15 06:28:55;;;;;;;6.50;3.10;;;23.90;51.90;;;;;;219942;1270;25467;-63
2022/05/15 06:33:59;;;;;;;4.30;2.80;;;23.90;51.90;;;;;;220022;1268;22728;-63
2022/05/15 06:39:03;;;;;;;4.30;2.80;;;23.90;51.90;;;;;;220211;1267;22561;-60
2022/05/15 06:44:10;;;;;;;6.30;2.70;;;23.90;51.80;;;;;;220365;1268;26297;-62
2022/05/15 06:49:17;;;;;;;3.50;2.40;;;23.90;51.80;;;;;;220122;1268;25250;-61
2022/05/15 06:54:25;;;;;;;7.30;2.90;;;23.90;51.90;;;;;;220445;1267;24300;-63
2022/05/15 06:59:37;;;;;;;5.10;3.00;;;24.00;51.90;;;;;;220341;1267;22620;-62
2022/05/15 07:04:44;;;;;;;4.50;2.70;;;24.00;51.70;;;;;;220408;1268;24656;-62
2022/05/15 07:09:52;;;;;;;5.00;2.70;;;24.00;52.00;;;;;;220069;1270;22762;-62
2022/05/15 07:14:56;;;;;;;4.80;2.90;;;24.10;51.60;;;;;;220051;1268;22557;-63
2022/05/15 07:20:00;;;;;;;4.20;2.70;;;24.10;51.60;;;;;;217773;1268;3298186;-62
2022/05/15 07:25:14;;;;;;;3.80;2.40;;;24.10;51.80;;;;;;220335;1268;25417;-61
2022/05/15 07:30:26;;;;;;;4.00;2.50;;;24.10;51.10;;;;;;220070;1268;22537;-66
2022/05/15 07:35:31;;;;;;;6.10;2.60;;;24.10;51.60;;;;;;219825;1268;25125;-64
2022/05/15 07:40:46;;;;;;;5.90;3.20;;;24.10;51.80;;;;;;219834;1268;22844;-63
2022/05/15 07:45:50;;;;;;;6.80;2.30;;;24.10;51.90;;;;;;219855;1267;27375;-63
2022/05/15 07:51:00;;;;;;;5.70;2.90;;;24.10;51.60;;;;;;219714;1269;24127;-59
2022/05/15 07:56:13;;;;;;;4.90;2.70;;;24.10;51.90;;;;;;219266;1267;23837;-65
2022/05/15 08:01:18;;;;;;;6.20;2.80;;;24.20;51.70;;;;;;219402;1270;24422;-58
2022/05/15 08:11:54;;;;;;;3.90;2.40;;;24.20;51.50;;;;;;227716;1268;22435;-63
2022/05/15 08:17:14;;;;;;;3.50;2.20;;;24.30;51.50;;;;;;227749;1267;22399;-58
2022/05/15 08:27:50;;;;;;;4.50;2.60;;;24.40;51.20;;;;;;227661;1268;23035;-63
2022/05/15 08:32:53;;;;;;;4.40;2.60;;;24.40;51.10;;;;;;227669;1268;23411;-59
2022/05/15 08:37:57;;;;;;;4.90;2.70;;;24.50;51.20;;;;;;227670;1267;22476;-63
2022/05/15 08:43:03;;;;;;;3.80;2.20;;;24.50;50.90;;;;;;227621;1268;22427;-62
2022/05/15 08:48:14;;;;;;;4.50;2.70;;;24.50;50.80;;;;;;227668;1267;22480;-61
2022/05/15 08:53:35;;;;;;;8.80;2.70;;;24.50;50.80;;;;;;227635;1267;22190;-66
2022/05/15 08:58:53;;;;;;;7.70;3.20;;;24.50;50.80;;;;;;219729;1268;22569;-66
2022/05/15 09:03:59;;;;;;;4.90;2.40;;;24.60;50.80;;;;;;219774;1269;22701;-70
2022/05/15 09:09:25;;;;;;;5.30;2.70;;;24.50;50.90;;;;;;220394;1268;22627;-70
2022/05/15 09:14:53;;;;;;;3.50;2.50;;;24.50;50.90;;;;;;219880;1267;24258;-64
2022/05/15 09:20:13;;;;;;;8.90;3.10;;;24.50;51.00;;;;;;220099;1270;22595;-63
2022/05/15 09:25:22;;;;;;;9.70;2.40;;;24.50;51.10;;;;;;220394;1267;25627;-61
2022/05/15 09:30:49;;;;;;;5.10;2.60;;;24.50;50.80;;;;;;220327;1267;25298;-62
2022/05/15 09:36:17;;;;;;;6.10;2.30;;;24.50;51.10;;;;;;220322;1268;22544;-63
2022/05/15 09:47:19;;;;;;;11.70;2.20;;;24.50;52.50;;;;;;220218;1270;24115;-64
2022/05/15 09:52:32;;;;;;;;;;;24.50;50.90;;;;;;220196;1270;23412;-64
2022/05/15 09:57:51;;;;;;;7.30;1.80;;;24.40;47.70;;;;;;220134;1270;22990;-61
2022/05/15 10:03:03;;;;;;;5.80;1.80;;;24.40;45.60;;;;;;220185;1270;25860;-64
2022/05/15 10:08:24;;;;;;;7.90;2.00;;;24.40;44.60;;;;;;220084;1268;23145;-62
2022/05/15 10:13:40;;;;;;;7.30;1.70;;;24.30;43.60;;;;;;220514;1270;24211;-66
2022/05/15 10:18:56;;;;;;;3.60;1.40;;;24.10;41.60;;;;;;220159;1268;22739;-61
2022/05/15 10:24:08;;;;;;;4.50;1.80;;;23.90;40.10;;;;;;219871;1267;22723;-62
2022/05/15 10:29:25;;;;;;;4.70;1.60;;;24.10;40.30;;;;;;219765;1270;24179;-64
2022/05/15 10:34:31;;;;;;;5.50;1.60;;;24.10;40.40;;;;;;220221;1270;25432;-64
2022/05/15 10:40:00;;;;;;;7.60;1.80;;;24.00;39.60;;;;;;220244;1270;22529;-61
2022/05/15 10:45:23;;;;;;;6.10;1.70;;;24.20;40.50;;;;;;220031;1268;24427;-58
2022/05/15 10:50:54;;;;;;;7.50;1.80;;;24.30;40.30;;;;;;219953;1270;22627;-58
2022/05/15 11:01:59;;;;;;;10.40;1.90;;;24.40;41.00;;;;;;219655;1270;22538;-61
2022/05/15 11:07:45;;;;;;;8.90;2.50;;;24.50;41.60;;;;;;220057;1270;22535;-60
2022/05/15 11:13:09;;;;;;;13.00;3.10;;;24.60;41.40;;;;;;220554;1270;25352;-61
2022/05/15 11:18:50;;;;;;;17.30;3.10;;;24.70;42.50;;;;;;220131;1270;22631;-61
2022/05/15 11:24:20;;;;;;;28.00;4.10;;;24.60;42.30;;;;;;219913;1270;22550;-56
2022/05/15 11:29:27;;;;;;;8.00;2.20;;;24.70;43.50;;;;;;221272;1270;25506;-60
2022/05/15 11:35:10;;;;;;;13.40;2.60;;;24.90;42.60;;;;;;219920;1270;24303;-61
2022/05/15 11:40:36;;;;;;;16.10;3.20;;;24.90;42.60;;;;;;220088;1270;22732;-61
2022/05/15 11:45:55;;;;;;;8.80;3.30;;;24.90;43.00;;;;;;220260;1270;22544;-59
2022/05/15 11:51:24;;;;;;;13.90;2.70;;;24.80;43.20;;;;;;220330;1270;24424;-61
2022/05/15 11:56:36;;;;;;;10.50;3.30;;;24.90;43.40;;;;;;220196;1268;22675;-58
2022/05/15 12:02:04;;;;;;;10.90;2.80;;;24.90;43.90;;;;;;220137;1268;22553;-59
2022/05/15 12:07:30;;;;;;;12.70;3.50;;;24.90;43.60;;;;;;220031;1270;24412;-60
2022/05/15 12:13:00;;;;;;;7.80;3.00;;;24.90;43.70;;;;;;220079;1270;24256;-61
2022/05/15 12:18:25;;;;;;;16.80;4.80;;;24.90;43.80;;;;;;220126;1268;22530;-60
2022/05/15 12:24:26;;;;;;;11.30;3.80;;;25.00;47.40;;;;;;220315;1267;25572;-60
2022/05/15 12:29:12;;;;;;;12.60;3.70;;;25.10;47.60;;;;;;220715;1267;22614;-61
2022/05/15 12:34:36;;;;;;;15.50;3.70;;;25.10;46.80;;;;;;220542;1268;22784;-61
2022/05/15 12:39:45;;;;;;;10.40;3.50;;;25.10;46.00;;;;;;220024;1270;22690;-63
2022/05/15 12:45:20;;;;;;;8.70;3.20;;;25.00;45.60;;;;;;220389;1270;24203;-61
2022/05/15 12:50:25;;;;;;;11.00;3.80;;;25.00;45.60;;;;;;220105;1268;22749;-59
2022/05/15 12:55:38;;;;;;;10.80;3.80;;;25.00;45.30;;;;;;219995;1270;22665;-60
2022/05/15 13:00:45;;;;;;;10.30;3.70;;;25.10;45.80;;;;;;220502;1270;22591;-60
2022/05/15 13:05:53;;;;;;;9.70;3.30;;;25.00;45.70;;;;;;220424;1270;22649;-60
2022/05/15 13:11:07;;;;;;;8.20;3.20;;;25.00;45.80;;;;;;220573;1268;25461;-60
2022/05/15 13:16:17;;;;;;;10.20;3.20;;;25.00;46.10;;;;;;220372;1270;22833;-60
2022/05/15 13:21:33;;;;;;;10.60;3.30;;;25.00;45.70;;;;;;220358;1267;22575;-60
2022/05/15 13:26:43;;;;;;;10.30;3.70;;;25.00;45.70;;;;;;219915;1270;22535;-61
2022/05/15 13:31:49;;;;;;;11.50;3.70;;;25.10;45.80;;;;;;220309;1270;24218;-60
2022/05/15 13:36:57;;;;;;;8.30;3.20;;;25.00;45.70;;;;;;219979;1270;22577;-59
2022/05/15 13:48:17;;;;;;;6.70;2.50;;;25.00;45.80;;;;;;220305;1271;25370;-60
2022/05/15 13:53:42;;;;;;;8.80;3.30;;;25.00;45.90;;;;;;219696;1270;22719;-60
2022/05/15 13:58:53;;;;;;;9.10;3.10;;;25.10;45.80;;;;;;220463;1268;23933;-60
2022/05/15 14:03:58;;;;;;;7.50;2.90;;;25.10;45.90;;;;;;220421;1270;23952;-58
2022/05/15 14:09:11;;;;;;;7.10;2.90;;;25.00;46.00;;;;;;220284;1270;25594;-60
2022/05/15 14:14:16;;;;;;;7.40;2.90;;;25.10;45.90;;;;;;219989;1268;24293;-57
2022/05/15 14:19:20;;;;;;;5.30;2.50;;;25.00;45.50;;;;;;220658;1267;22665;-61
2022/05/15 14:24:24;;;;;;;8.00;3.30;;;25.00;45.80;;;;;;220202;1267;22564;-60
2022/05/15 14:29:28;;;;;;;9.30;3.20;;;25.10;45.80;;;;;;220123;1267;25369;-60
2022/05/15 14:34:31;;;;;;;6.60;2.60;;;25.10;45.30;;;;;;220061;1267;22613;-61
2022/05/15 14:39:35;;;;;;;6.10;2.40;;;25.00;45.70;;;;;;220250;1270;22555;-62
2022/05/15 14:44:39;;;;;;;4.90;2.30;;;25.10;45.80;;;;;;220056;1268;25064;-61
2022/05/15 14:49:47;;;;;;;5.40;2.10;;;25.00;46.00;;;;;;220127;1268;24654;-60
2022/05/15 14:54:51;;;;;;;6.60;2.40;;;25.00;45.60;;;;;;219989;1271;25613;-60
2022/05/15 14:59:59;;;;;;;6.60;2.70;;;25.00;45.80;;;;;;220091;1269;22675;-61
2022/05/15 15:05:03;;;;;;;4.50;2.30;;;25.00;45.70;;;;;;220103;1271;25331;-60
2022/05/15 15:10:07;;;;;;;6.90;2.80;;;25.00;46.00;;;;;;219997;1271;22526;-60
2022/05/15 15:15:13;;;;;;;6.60;2.60;;;25.00;45.60;;;;;;220134;1270;23943;-61
2022/05/15 15:20:18;;;;;;;7.70;2.50;;;25.00;45.70;;;;;;220000;1268;22554;-58
2022/05/15 15:25:22;;;;;;;7.30;2.80;;;25.10;44.90;;;;;;220269;1267;25298;-59
2022/05/15 15:30:25;;;;;;;5.60;2.40;;;25.00;45.50;;;;;;220237;1267;22570;-60
2022/05/15 15:35:34;;;;;;;6.10;2.50;;;25.00;45.30;;;;;;220132;1269;22593;-59
2022/05/15 15:40:56;;;;;;;6.20;2.20;;;25.00;45.50;;;;;;220042;1271;22547;-59
2022/05/15 15:46:01;;;;;;;5.50;2.30;;;24.90;45.60;;;;;;220222;1268;24475;-60
2022/05/15 15:51:37;;;;;;;4.50;2.10;;;25.00;45.60;;;;;;220185;1269;22620;-59
2022/05/15 15:56:44;;;;;;;4.20;2.20;;;25.00;45.70;;;;;;219996;1270;24380;-59
2022/05/15 16:01:49;;;;;;;6.00;2.40;;;25.00;45.60;;;;;;220186;1269;24291;-60
2022/05/15 16:06:58;;;;;;;6.00;2.30;;;25.00;45.40;;;;;;220053;1268;22542;-59
2022/05/15 16:12:09;;;;;;;6.00;2.30;;;24.90;45.50;;;;;;220065;1271;24329;-60
2022/05/15 16:17:27;;;;;;;5.20;2.00;;;24.90;45.60;;;;;;220114;1271;22757;-61
2022/05/15 16:22:33;;;;;;;3.40;1.90;;;24.90;45.50;;;;;;220132;1271;22534;-62
2022/05/15 16:27:37;;;;;;;6.80;2.60;;;24.90;45.40;;;;;;220131;1269;26017;-60
2022/05/15 16:32:48;;;;;;;3.10;1.80;;;24.90;45.70;;;;;;220292;1268;22541;-60
2022/05/15 16:37:51;;;;;;;5.00;2.10;;;24.90;45.50;;;;;;220512;1271;23904;-60
2022/05/15 16:42:55;;;;;;;4.20;1.80;;;24.90;45.70;;;;;;219812;1272;22692;-60
2022/05/15 16:48:00;;;;;;;4.80;2.20;;;24.90;45.40;;;;;;220298;1271;24289;-60
2022/05/15 16:53:04;;;;;;;4.80;2.30;;;24.90;45.50;;;;;;220307;1268;22549;-61
2022/05/15 16:58:13;;;;;;;3.60;1.60;;;24.90;45.40;;;;;;220247;1268;26383;-57
2022/05/15 17:03:19;;;;;;;4.70;1.70;;;24.90;45.90;;;;;;220112;1268;25427;-60
2022/05/15 17:08:22;;;;;;;4.60;2.00;;;24.90;46.20;;;;;;220496;1268;25247;-61
2022/05/15 17:13:29;;;;;;;4.90;1.90;;;24.90;45.70;;;;;;220250;1268;25528;-59
2022/05/15 17:18:33;;;;;;;6.20;2.40;;;24.90;44.70;;;;;;220618;1268;24357;-62
2022/05/15 17:23:39;;;;;;;6.50;2.50;;;24.90;45.50;;;;;;220519;1268;22573;-61
2022/05/15 17:34:15;;;;;;;2.80;1.50;;;24.80;45.40;;;;;;219887;1271;23937;-61
2022/05/15 17:39:20;;;;;;;3.90;1.80;;;24.80;45.90;;;;;;220133;1268;25348;-61
2022/05/15 17:44:26;;;;;;;3.50;1.60;;;24.80;46.10;;;;;;220717;1269;22649;-61
2022/05/15 17:49:30;;;;;;;3.30;1.60;;;24.80;45.40;;;;;;220315;1268;24404;-57
2022/05/15 17:54:36;;;;;;;5.00;1.80;;;24.80;45.00;;;;;;220138;1268;22570;-60
2022/05/15 17:59:41;;;;;;;4.30;2.00;;;24.80;45.10;;;;;;220603;1269;22544;-61
2022/05/15 18:04:45;;;;;;;3.80;1.50;;;24.80;44.90;;;;;;220339;1267;23911;-60
2022/05/15 18:09:53;;;;;;;4.00;1.80;;;24.80;45.30;;;;;;220198;1268;25369;-59
2022/05/15 18:15:00;;;;;;;4.90;2.10;;;24.80;45.70;;;;;;220084;1268;22567;-61
2022/05/15 18:20:05;;;;;;;4.60;1.80;;;24.80;45.20;;;;;;220281;1270;22611;-61
2022/05/15 18:25:20;;;;;;;4.40;1.80;;;24.80;45.40;;;;;;220280;1267;25263;-61
2022/05/15 18:30:27;;;;;;;4.00;1.80;;;24.80;45.40;;;;;;220488;1268;24312;-61
2022/05/15 18:35:32;;;;;;;5.50;1.80;;;24.70;45.50;;;;;;220382;1268;24209;-62
2022/05/15 18:40:37;;;;;;;4.70;2.00;;;24.70;45.50;;;;;;220415;1267;22591;-59
2022/05/15 18:45:41;;;;;;;5.60;2.00;;;24.70;45.50;;;;;;220058;1268;25414;-61
2022/05/15 18:56:09;;;;;;;8.60;2.50;;;24.70;45.50;;;;;;219878;1268;24371;-59
2022/05/15 19:01:17;;;;;;;8.80;2.40;;;24.70;45.50;;;;;;220142;1270;23539;-60
2022/05/15 19:06:24;;;;;;;13.80;2.50;;;24.70;45.50;;;;;;220183;1268;23063;-62
2022/05/15 19:11:31;;;;;;;8.10;2.20;;;24.70;45.70;;;;;;219996;1268;25414;-59
2022/05/15 19:16:58;;;;;;;5.60;1.70;;;24.80;46.20;;;;;;219942;1268;24315;-61
2022/05/15 19:22:04;;;;;;;11.80;2.50;;;24.80;46.10;;;;;;219720;1267;592645;-60
2022/05/15 19:27:11;;;;;;;9.60;2.10;;;24.70;46.00;;;;;;220257;1267;25301;-59
2022/05/15 19:32:22;;;;;;;7.30;1.60;;;24.70;46.30;;;;;;220290;1267;22574;-61
2022/05/15 19:37:43;;;;;;;37.90;5.20;;;24.70;46.00;;;;;;219974;1268;24297;-60
2022/05/15 19:42:51;;;;;;;15.30;3.30;;;24.80;50.30;;;;;;219901;1268;23860;-59
2022/05/15 19:47:55;;;;;;;34.30;4.90;;;24.80;48.70;;;;;;219716;1270;24227;-60
2022/05/15 19:53:00;;;;;;;16.10;3.20;;;24.80;49.60;;;;;;220054;1268;26575;-59
2022/05/15 19:58:07;;;;;;;16.60;3.20;;;24.80;49.10;;;;;;222767;1268;25249;-60
2022/05/15 20:03:15;;;;;;;14.00;2.60;;;24.80;48.60;;;;;;219949;1270;22547;-59
2022/05/15 20:14:05;;;;;;;15.50;3.00;;;24.70;48.80;;;;;;220220;1268;22592;-62
2022/05/15 20:19:15;;;;;;;12.70;2.90;;;24.80;48.60;;;;;;220000;1268;22559;-61
2022/05/15 20:24:19;;;;;;;11.50;2.30;;;24.80;48.80;;;;;;220045;1268;22550;-62
2022/05/15 20:29:23;;;;;;;9.50;2.10;;;24.80;48.80;;;;;;219974;1268;22573;-62
2022/05/15 20:34:29;;;;;;;14.00;3.10;;;24.80;48.80;;;;;;220091;1268;22616;-60
2022/05/15 20:39:34;;;;;;;7.60;2.20;;;24.70;49.20;;;;;;220205;1268;22563;-61
2022/05/15 20:44:39;;;;;;;7.70;2.40;;;24.80;50.80;;;;;;219932;1270;22567;-59
2022/05/15 20:49:46;;;;;;;8.10;2.60;;;24.80;50.50;;;;;;220181;1270;25434;-61
2022/05/15 20:54:55;;;;;;;11.40;2.20;;;24.70;51.10;;;;;;219744;1270;22694;-60
2022/05/15 21:00:01;;;;;;;11.90;3.30;;;24.70;50.10;;;;;;219846;1270;24235;-61
2022/05/15 21:05:05;;;;;;;10.90;3.00;;;24.70;50.30;;;;;;220059;1270;25223;-58
2022/05/15 21:10:23;;;;;;;6.90;2.70;;;24.70;50.00;;;;;;219688;1270;24355;-61
2022/05/15 21:15:33;;;;;;;6.40;2.00;;;24.70;50.10;;;;;;219621;1268;25245;-62
2022/05/15 21:20:49;;;;;;;5.80;2.40;;;24.70;51.10;;;;;;219673;1268;26519;-61
2022/05/15 21:25:53;;;;;;;4.90;2.30;;;24.70;49.60;;;;;;219688;1268;24442;-61
2022/05/15 21:30:58;;;;;;;6.00;1.80;;;24.70;49.90;;;;;;220235;1268;22535;-61
2022/05/15 21:36:22;;;;;;;6.30;2.10;;;24.70;50.00;;;;;;219881;1268;24272;-61
2022/05/15 21:47:09;;;;;;;6.40;2.40;;;24.70;50.40;;;;;;219678;1270;24366;-61
2022/05/15 21:52:19;;;;;;;4.90;2.40;;;24.70;50.10;;;;;;219972;1268;22548;-62
2022/05/15 21:57:23;;;;;;;3.30;1.80;;;24.70;50.10;;;;;;220159;1268;22584;-60
2022/05/15 22:02:32;;;;;;;5.60;2.00;;;24.70;50.20;;;;;;219979;1268;24360;-61
2022/05/15 22:07:37;;;;;;;5.70;2.30;;;24.60;50.20;;;;;;220129;1268;24221;-61
2022/05/15 22:12:42;;;;;;;5.20;1.90;;;24.60;50.20;;;;;;220129;1268;22547;-61
2022/05/15 22:17:52;;;;;;;5.90;2.30;;;24.60;50.30;;;;;;220219;1268;22564;-61
2022/05/15 22:23:00;;;;;;;9.60;2.50;;;24.70;50.30;;;;;;220424;1268;22566;-61
2022/05/15 22:28:04;;;;;;;4.70;2.10;;;24.70;50.30;;;;;;220910;1268;24217;-60
2022/05/15 22:33:15;;;;;;;7.70;2.90;;;24.60;50.50;;;;;;219738;1270;22696;-59
2022/05/15 22:38:24;;;;;;;6.30;2.50;;;24.60;51.50;;;;;;220183;1268;24425;-63
2022/05/15 22:43:29;;;;;;;7.10;2.50;;;24.60;50.80;;;;;;220020;1268;22661;-60
2022/05/15 22:48:38;;;;;;;8.80;2.90;;;24.50;50.40;;;;;;219941;1268;25464;-60
2022/05/15 22:54:11;;;;;;;5.70;2.30;;;24.50;50.10;;;;;;220194;1267;24281;-59
2022/05/15 22:59:17;;;;;;;9.40;2.80;;;24.50;50.00;;;;;;220327;1267;25254;-60
2022/05/15 23:10:30;;;;;;;8.10;2.40;;;24.40;50.20;;;;;;220326;1268;22547;-59
2022/05/15 23:15:48;;;;;;;8.80;2.60;;;24.40;50.40;;;;;;219978;1268;22725;-60
2022/05/15 23:20:53;;;;;;;6.80;2.60;;;24.40;50.50;;;;;;219943;1268;22833;-60
2022/05/15 23:25:59;;;;;;;7.60;2.70;;;24.40;50.30;;;;;;219765;1268;23320;-60
2022/05/15 23:31:09;;;;;;;5.70;2.70;;;24.30;50.30;;;;;;220448;1270;25353;-60
2022/05/15 23:36:14;;;;;;;5.10;2.50;;;24.30;51.00;;;;;;220100;1270;26471;-61
2022/05/15 23:41:19;;;;;;;6.10;2.50;;;24.30;51.10;;;;;;219795;1270;26287;-60
2022/05/15 23:46:29;;;;;;;6.40;2.70;;;24.30;50.60;;;;;;220216;1270;23406;-61
2022/05/15 23:51:34;;;;;;;8.40;2.60;;;24.20;50.50;;;;;;219759;1270;23094;-61
2022/05/15 23:56:39;;;;;;;8.60;2.60;;;24.20;50.60;;;;;;220124;1270;25235;-61
